createdAt,value
2023-04-08T00:02:02.025Z,65.65
2023-04-08T00:04:28.321Z,65.64
2023-04-08T00:06:54.479Z,65.52
2023-04-08T00:09:20.607Z,65.54
2023-04-08T00:11:46.775Z,65.63
2023-04-08T00:14:12.905Z,65.82
2023-04-08T00:16:39.115Z,65.81
2023-04-08T00:19:05.233Z,65.61
2023-04-08T00:21:31.362Z,65.91
2023-04-08T00:23:57.481Z,65.83
2023-04-08T00:26:23.568Z,65.80
2023-04-08T00:28:49.729Z,65.86
2023-04-08T00:31:16.072Z,65.56
2023-04-08T00:33:42.196Z,65.69
2023-04-08T00:36:08.301Z,65.73
2023-04-08T00:38:34.424Z,65.75
2023-04-08T00:41:00.514Z,65.74
2023-04-08T00:43:26.627Z,65.57
2023-04-08T00:45:52.775Z,65.71
2023-04-08T00:48:18.884Z,65.63
2023-04-08T00:50:44.971Z,65.63
2023-04-08T00:53:11.561Z,65.57
2023-04-08T00:55:37.644Z,65.67
2023-04-08T00:58:03.745Z,65.74
2023-04-08T01:00:29.874Z,65.51
2023-04-08T01:02:56.115Z,65.68
2023-04-08T01:05:22.281Z,65.72
2023-04-08T01:07:48.393Z,65.51
2023-04-08T01:10:14.494Z,65.59
2023-04-08T01:12:40.615Z,65.84
2023-04-08T01:15:06.743Z,65.60
2023-04-08T01:17:32.913Z,65.74
2023-04-08T01:19:59.052Z,65.62
2023-04-08T01:22:25.157Z,65.67
2023-04-08T01:24:51.242Z,65.66
2023-04-08T01:27:17.325Z,65.71
2023-04-08T01:29:43.437Z,65.64
2023-04-08T01:32:09.533Z,65.68
2023-04-08T01:34:35.626Z,65.59
2023-04-08T01:37:01.740Z,65.76
2023-04-08T01:39:27.828Z,65.48
2023-04-08T01:41:53.909Z,65.49
2023-04-08T01:44:20.028Z,65.67
2023-04-08T01:46:46.230Z,65.70
2023-04-08T01:49:12.380Z,65.80
2023-04-08T01:51:39.024Z,65.68
2023-04-08T01:54:05.111Z,65.61
2023-04-08T01:56:31.214Z,65.59
2023-04-08T01:58:57.330Z,65.72
2023-04-08T02:01:23.449Z,65.70
2023-04-08T02:03:49.657Z,65.56
2023-04-08T02:06:15.825Z,65.58
2023-04-08T02:08:41.919Z,65.56
2023-04-08T02:11:08.031Z,65.58
2023-04-08T02:13:34.161Z,65.78
2023-04-08T02:16:00.282Z,65.69
2023-04-08T02:18:26.373Z,65.63
2023-04-08T02:20:52.511Z,65.78
2023-04-08T02:23:18.599Z,65.81
2023-04-08T02:25:44.701Z,65.72
2023-04-08T02:28:10.820Z,65.57
2023-04-08T02:30:36.931Z,65.72
2023-04-08T02:33:03.073Z,65.58
2023-04-08T02:35:29.275Z,65.52
2023-04-08T02:37:55.382Z,65.57
2023-04-08T02:40:21.480Z,65.62
2023-04-08T02:42:47.570Z,65.77
2023-04-08T02:45:13.660Z,65.58
2023-04-08T02:47:39.765Z,65.65
2023-04-08T02:50:05.896Z,65.58
2023-04-08T02:52:31.994Z,65.61
2023-04-08T02:54:58.114Z,65.63
2023-04-08T02:57:24.713Z,65.67
2023-04-08T02:59:50.825Z,65.72
2023-04-08T03:02:17.004Z,65.41
2023-04-08T03:04:43.244Z,65.58
2023-04-08T03:07:09.354Z,65.78
2023-04-08T03:09:35.446Z,65.53
2023-04-08T03:12:01.564Z,65.65
2023-04-08T03:14:27.708Z,65.78
2023-04-08T03:16:53.923Z,65.72
2023-04-08T03:19:20.107Z,65.51
2023-04-08T03:21:46.204Z,65.54
2023-04-08T03:24:12.330Z,65.94
2023-04-08T03:26:38.454Z,65.72
2023-04-08T03:29:04.550Z,65.44
2023-04-08T03:31:30.739Z,65.79
2023-04-08T03:33:56.863Z,65.62
2023-04-08T03:36:22.972Z,65.59
2023-04-08T03:38:49.385Z,65.57
2023-04-08T03:41:15.736Z,65.53
2023-04-08T03:43:41.835Z,65.63
2023-04-08T03:46:08.000Z,65.41
2023-04-08T03:48:34.197Z,65.68
2023-04-08T03:51:00.294Z,65.54
2023-04-08T03:53:26.385Z,65.56
2023-04-08T03:55:52.504Z,65.73
2023-04-08T03:58:18.592Z,65.57
2023-04-08T04:00:44.699Z,65.75
2023-04-08T04:03:11.044Z,65.69
2023-04-08T04:05:37.259Z,65.63
2023-04-08T04:08:03.408Z,65.54
2023-04-08T04:10:29.526Z,65.67
2023-04-08T04:12:55.620Z,65.50
2023-04-08T04:15:21.721Z,65.55
2023-04-08T04:17:47.933Z,65.77
2023-04-08T04:20:14.097Z,65.55
2023-04-08T04:22:40.226Z,65.54
2023-04-08T04:25:06.357Z,65.55
2023-04-08T04:27:32.484Z,65.46
2023-04-08T04:29:58.587Z,65.55
2023-04-08T04:32:24.743Z,65.70
2023-04-08T04:34:50.877Z,65.55
2023-04-08T04:37:16.978Z,65.49
2023-04-08T04:39:43.097Z,65.49
2023-04-08T04:42:09.188Z,65.54
2023-04-08T04:44:35.298Z,65.58
2023-04-08T04:47:01.422Z,65.63
2023-04-08T04:49:27.526Z,65.54
2023-04-08T04:51:53.618Z,65.56
2023-04-08T04:54:19.742Z,65.56
2023-04-08T04:56:45.837Z,65.71
2023-04-08T04:59:11.928Z,65.50
2023-04-08T05:01:38.153Z,65.50
2023-04-08T05:04:04.380Z,65.53
2023-04-08T05:06:30.498Z,65.56
2023-04-08T05:08:56.612Z,65.46
2023-04-08T05:11:22.722Z,65.65
2023-04-08T05:13:48.831Z,65.50
2023-04-08T05:16:15.060Z,65.45
2023-04-08T05:18:41.208Z,65.49
2023-04-08T05:21:07.321Z,65.44
2023-04-08T05:23:33.434Z,65.32
2023-04-08T05:25:59.583Z,65.40
2023-04-08T05:28:25.698Z,65.42
2023-04-08T05:30:51.831Z,65.63
2023-04-08T05:33:17.947Z,65.65
2023-04-08T05:35:44.117Z,65.68
2023-04-08T05:38:10.246Z,65.47
2023-04-08T05:40:36.379Z,65.53
2023-04-08T05:43:02.479Z,65.69
2023-04-08T05:45:28.597Z,65.47
2023-04-08T05:47:54.776Z,65.49
2023-04-08T05:50:20.929Z,65.61
2023-04-08T05:52:47.047Z,65.44
2023-04-08T05:55:13.157Z,65.54
2023-04-08T05:57:39.269Z,65.56
2023-04-08T06:00:05.482Z,65.61
2023-04-08T06:02:31.758Z,65.64
2023-04-08T06:04:58.022Z,65.61
2023-04-08T06:07:24.369Z,65.41
2023-04-08T06:09:50.523Z,65.45
2023-04-08T06:12:16.621Z,65.50
2023-04-08T06:14:42.762Z,65.65
2023-04-08T06:17:08.869Z,65.62
2023-04-08T06:19:34.957Z,65.56
2023-04-08T06:22:01.083Z,65.38
2023-04-08T06:24:27.194Z,65.46
2023-04-08T06:26:53.280Z,65.47
2023-04-08T06:29:19.408Z,65.46
2023-04-08T06:31:45.576Z,65.44
2023-04-08T06:34:11.698Z,65.40
2023-04-08T06:36:37.807Z,65.58
2023-04-08T06:39:03.894Z,65.32
2023-04-08T06:41:29.992Z,65.44
2023-04-08T06:43:56.116Z,65.64
2023-04-08T06:46:22.355Z,65.32
2023-04-08T06:48:48.757Z,65.40
2023-04-08T06:51:15.007Z,65.31
2023-04-08T06:53:41.138Z,65.33
2023-04-08T06:56:07.242Z,65.35
2023-04-08T06:58:33.376Z,65.52
2023-04-08T07:00:59.486Z,65.31
2023-04-08T07:03:25.753Z,65.38
2023-04-08T07:05:52.476Z,65.54
2023-04-08T07:08:18.611Z,65.38
2023-04-08T07:10:44.708Z,65.46
2023-04-08T07:13:10.888Z,65.38
2023-04-08T07:15:36.979Z,65.47
2023-04-08T07:18:03.142Z,65.35
2023-04-08T07:20:30.965Z,65.31
2023-04-08T07:22:58.268Z,65.42
2023-04-08T07:25:24.404Z,65.59
2023-04-08T07:27:50.521Z,65.60
2023-04-08T07:30:16.622Z,65.38
2023-04-08T07:32:42.819Z,65.41
2023-04-08T07:35:08.938Z,65.27
2023-04-08T07:37:35.028Z,65.41
2023-04-08T07:40:01.153Z,65.22
2023-04-08T07:42:27.281Z,65.52
2023-04-08T07:44:53.393Z,65.36
2023-04-08T07:47:19.498Z,65.29
2023-04-08T07:49:45.618Z,65.33
2023-04-08T07:52:11.731Z,65.51
2023-04-08T07:54:37.832Z,65.30
2023-04-08T07:57:03.959Z,65.33
2023-04-08T07:59:30.141Z,65.47
2023-04-08T08:01:56.303Z,65.27
2023-04-08T08:04:22.630Z,65.31
2023-04-08T08:06:48.953Z,65.26
2023-04-08T08:09:15.060Z,65.34
2023-04-08T08:11:41.197Z,65.25
2023-04-08T08:14:07.328Z,65.41
2023-04-08T08:16:33.600Z,65.52
2023-04-08T08:18:59.829Z,65.29
2023-04-08T08:21:25.932Z,65.46
2023-04-08T08:23:52.144Z,65.34
2023-04-08T08:26:18.368Z,65.45
2023-04-08T08:28:44.696Z,65.25
2023-04-08T08:31:10.832Z,65.42
2023-04-08T08:33:36.963Z,65.42
2023-04-08T08:36:03.126Z,65.19
2023-04-08T08:38:29.268Z,65.39
2023-04-08T08:40:55.381Z,65.25
2023-04-08T08:43:21.493Z,65.34
2023-04-08T08:45:47.595Z,65.32
2023-04-08T08:48:13.706Z,65.23
2023-04-08T08:50:39.817Z,65.41
2023-04-08T08:53:05.917Z,65.22
2023-04-08T08:55:56.774Z,65.57
2023-04-08T08:58:18.101Z,65.43
2023-04-08T09:00:44.210Z,65.21
2023-04-08T09:03:10.497Z,65.43
2023-04-08T09:05:36.862Z,65.22
2023-04-08T09:08:03.148Z,65.37
2023-04-08T09:10:29.237Z,65.46
2023-04-08T09:12:55.374Z,65.27
2023-04-08T09:15:21.490Z,65.35
2023-04-08T09:17:47.646Z,65.25
2023-04-08T09:20:13.995Z,65.42
2023-04-08T09:22:40.286Z,65.25
2023-04-08T09:25:06.390Z,65.28
2023-04-08T09:27:32.495Z,65.51
2023-04-08T09:29:58.634Z,65.13
2023-04-08T09:32:24.750Z,65.20
2023-04-08T09:34:50.867Z,65.10
2023-04-08T09:37:16.961Z,65.14
2023-04-08T09:39:43.073Z,65.36
2023-04-08T09:42:09.175Z,65.29
2023-04-08T09:44:35.335Z,65.07
2023-04-08T09:47:01.439Z,65.18
2023-04-08T09:49:27.535Z,65.18
2023-04-08T09:51:53.657Z,65.37
2023-04-08T09:54:19.787Z,65.16
2023-04-08T09:56:45.896Z,65.04
2023-04-08T09:59:12.018Z,65.51
2023-04-08T10:01:38.225Z,65.16
2023-04-08T10:04:04.577Z,65.18
2023-04-08T10:06:30.801Z,65.15
2023-04-08T10:08:56.894Z,65.20
2023-04-08T10:11:22.999Z,65.00
2023-04-08T10:13:49.553Z,65.08
2023-04-08T10:16:15.852Z,65.18
2023-04-08T10:18:41.971Z,65.16
2023-04-08T10:21:08.105Z,65.35
2023-04-08T10:23:34.238Z,65.18
2023-04-08T10:26:00.327Z,65.37
2023-04-08T10:28:26.711Z,65.33
2023-04-08T10:30:52.936Z,65.33
2023-04-08T10:33:19.100Z,65.03
2023-04-08T10:35:45.267Z,65.30
2023-04-08T10:38:11.364Z,65.11
2023-04-08T10:40:37.463Z,65.16
2023-04-08T10:43:03.594Z,65.06
2023-04-08T10:45:29.818Z,65.25
2023-04-08T10:47:55.952Z,65.15
2023-04-08T10:50:22.069Z,65.21
2023-04-08T10:52:48.156Z,65.19
2023-04-08T10:55:14.269Z,65.17
2023-04-08T10:57:40.405Z,65.13
2023-04-08T11:00:06.497Z,65.07
2023-04-08T11:02:32.686Z,65.27
2023-04-08T11:04:58.945Z,65.10
2023-04-08T11:07:25.040Z,65.21
2023-04-08T11:09:51.148Z,65.19
2023-04-08T11:12:17.258Z,65.15
2023-04-08T11:14:43.383Z,65.11
2023-04-08T11:17:09.477Z,65.31
2023-04-08T11:19:35.608Z,65.23
2023-04-08T11:22:01.720Z,65.11
2023-04-08T11:24:27.806Z,65.06
2023-04-08T11:26:53.923Z,65.23
2023-04-08T11:29:20.051Z,65.08
2023-04-08T11:31:46.149Z,65.10
2023-04-08T11:34:12.327Z,65.30
2023-04-08T11:36:38.419Z,65.22
2023-04-08T11:39:04.516Z,65.11
2023-04-08T11:41:30.624Z,65.27
2023-04-08T11:43:56.726Z,65.09
2023-04-08T11:46:22.893Z,65.08
2023-04-08T11:48:49.125Z,65.12
2023-04-08T11:51:15.209Z,65.00
2023-04-08T11:53:41.295Z,65.08
2023-04-08T11:56:07.593Z,65.28
2023-04-08T11:58:36.351Z,65.02
2023-04-08T12:01:02.631Z,65.04
2023-04-08T12:03:29.136Z,65.23
2023-04-08T12:05:55.405Z,65.08
2023-04-08T12:08:21.507Z,65.20
2023-04-08T12:10:47.628Z,65.05
2023-04-08T12:13:13.726Z,65.08
2023-04-08T12:15:39.824Z,65.07
2023-04-08T12:18:06.056Z,65.13
2023-04-08T12:20:32.234Z,65.15
2023-04-08T12:22:58.334Z,64.94
2023-04-08T12:25:24.467Z,65.30
2023-04-08T12:27:50.558Z,65.08
2023-04-08T12:30:16.859Z,64.91
2023-04-08T12:32:43.019Z,65.13
2023-04-08T12:35:09.125Z,64.95
2023-04-08T12:37:35.238Z,65.00
2023-04-08T12:40:01.368Z,64.97
2023-04-08T12:42:27.483Z,65.15
2023-04-08T12:44:53.576Z,65.02
2023-04-08T12:47:19.778Z,65.18
2023-04-08T12:49:49.663Z,64.87
2023-04-08T12:52:16.182Z,65.07
2023-04-08T12:54:42.305Z,64.89
2023-04-08T12:57:08.398Z,65.02
2023-04-08T12:59:34.487Z,64.85
2023-04-08T13:02:00.628Z,64.68
2023-04-08T13:04:26.738Z,65.10
2023-04-08T13:06:52.832Z,64.86
2023-04-08T13:09:18.949Z,65.06
2023-04-08T13:11:45.049Z,65.09
2023-04-08T13:14:11.161Z,64.82
2023-04-08T13:16:37.395Z,64.83
2023-04-08T13:19:03.525Z,65.15
2023-04-08T13:21:29.624Z,65.14
2023-04-08T13:23:55.817Z,64.83
2023-04-08T13:26:21.908Z,64.87
2023-04-08T13:28:56.570Z,65.03
2023-04-08T13:31:24.136Z,64.87
2023-04-08T13:33:50.649Z,64.83
2023-04-08T13:36:16.816Z,64.90
2023-04-08T13:38:43.039Z,65.01
2023-04-08T13:41:09.129Z,64.83
2023-04-08T13:43:35.220Z,64.89
2023-04-08T13:46:01.364Z,65.12
2023-04-08T13:48:27.532Z,64.77
2023-04-08T13:50:53.623Z,65.00
2023-04-08T13:53:19.743Z,65.01
2023-04-08T13:55:45.840Z,64.86
2023-04-08T13:58:22.960Z,64.80
2023-04-08T14:00:50.155Z,64.80
2023-04-08T14:03:16.403Z,64.82
2023-04-08T14:05:42.522Z,64.82
2023-04-08T14:08:08.646Z,64.79
2023-04-08T14:10:34.730Z,64.76
2023-04-08T14:13:00.836Z,64.77
2023-04-08T14:15:26.955Z,64.81
2023-04-08T14:17:53.085Z,64.74
2023-04-08T14:20:19.271Z,64.93
2023-04-08T14:22:45.378Z,64.76
2023-04-08T14:25:11.499Z,64.60
2023-04-08T14:27:47.535Z,64.63
2023-04-08T14:30:21.083Z,64.91
2023-04-08T14:32:47.259Z,64.69
2023-04-08T14:35:13.363Z,64.73
2023-04-08T14:37:39.490Z,64.69
2023-04-08T14:40:05.599Z,64.86
2023-04-08T14:42:31.699Z,64.58
2023-04-08T14:44:57.894Z,64.83
2023-04-08T14:47:24.011Z,64.73
2023-04-08T14:49:50.145Z,64.81
2023-04-08T14:52:16.292Z,64.80
2023-04-08T14:54:42.382Z,64.58
2023-04-08T14:57:08.487Z,64.63
2023-04-08T14:59:34.613Z,64.80
2023-04-08T15:02:00.774Z,64.92
2023-04-08T15:04:26.991Z,64.58
2023-04-08T15:06:53.155Z,64.70
2023-04-08T15:09:19.256Z,64.61
2023-04-08T15:11:45.386Z,64.83
2023-04-08T15:14:11.589Z,64.70
2023-04-08T15:16:37.682Z,64.78
2023-04-08T15:19:03.824Z,64.78
2023-04-08T15:21:29.964Z,64.67
2023-04-08T15:23:56.063Z,64.75
2023-04-08T15:26:22.163Z,64.61
2023-04-08T15:28:48.676Z,64.73
2023-04-08T15:31:14.939Z,64.74
2023-04-08T15:33:41.027Z,64.75
2023-04-08T15:36:07.199Z,64.82
2023-04-08T15:38:33.366Z,64.61
2023-04-08T15:40:59.470Z,64.60
2023-04-08T15:43:25.602Z,64.53
2023-04-08T15:45:51.704Z,64.58
2023-04-08T15:48:17.811Z,64.60
2023-04-08T15:50:43.992Z,64.70
2023-04-08T15:53:10.161Z,64.81
2023-04-08T15:55:36.237Z,64.73
2023-04-08T15:58:02.363Z,64.67
2023-04-08T16:00:28.499Z,64.57
2023-04-08T16:02:54.861Z,64.51
2023-04-08T16:05:21.151Z,64.59
2023-04-08T16:07:47.237Z,64.41
2023-04-08T16:10:13.361Z,64.74
2023-04-08T16:12:39.896Z,64.76
2023-04-08T16:15:06.031Z,64.57
2023-04-08T16:17:32.239Z,64.60
2023-04-08T16:19:58.376Z,64.78
2023-04-08T16:22:24.516Z,64.48
2023-04-08T16:24:50.756Z,64.55
2023-04-08T16:27:16.934Z,64.63
2023-04-08T16:29:43.031Z,64.61
2023-04-08T16:32:09.115Z,64.62
2023-04-08T16:34:37.511Z,64.61
2023-04-08T16:37:03.696Z,64.54
2023-04-08T16:39:29.821Z,64.56
2023-04-08T16:41:55.961Z,64.77
2023-04-08T16:44:25.788Z,65.00
2023-04-08T16:46:51.896Z,64.62
2023-04-08T16:49:18.575Z,64.44
2023-04-08T16:51:44.739Z,64.61
2023-04-08T16:54:10.889Z,64.59
2023-04-08T16:56:37.017Z,64.98
2023-04-08T16:59:03.098Z,64.54
2023-04-08T17:01:29.255Z,64.82
2023-04-08T17:03:55.726Z,64.72
2023-04-08T17:06:22.380Z,64.47
2023-04-08T17:08:48.569Z,64.70
2023-04-08T17:11:14.910Z,64.68
2023-04-08T17:13:41.251Z,64.58
2023-04-08T17:16:07.370Z,64.63
2023-04-08T17:18:33.541Z,64.70
2023-04-08T17:20:59.653Z,64.56
2023-04-08T17:23:25.750Z,64.76
2023-04-08T17:25:51.864Z,64.55
2023-04-08T17:28:17.959Z,64.70
2023-04-08T17:30:44.067Z,64.57
2023-04-08T17:33:10.704Z,64.54
2023-04-08T17:35:36.793Z,64.61
2023-04-08T17:38:02.936Z,64.76
2023-04-08T17:40:29.078Z,64.62
2023-04-08T17:42:55.187Z,64.76
2023-04-08T17:45:21.288Z,64.70
2023-04-08T17:47:47.408Z,64.81
2023-04-08T17:50:13.564Z,64.79
2023-04-08T17:52:39.671Z,64.60
2023-04-08T17:55:05.913Z,64.69
2023-04-08T17:57:32.001Z,64.61
2023-04-08T17:59:58.094Z,64.66
2023-04-08T18:02:24.768Z,64.61
2023-04-08T18:04:50.954Z,64.83
2023-04-08T18:07:17.048Z,64.78
2023-04-08T18:09:43.157Z,64.60
2023-04-08T18:12:09.241Z,64.80
2023-04-08T18:14:35.347Z,64.74
2023-04-08T18:17:01.499Z,64.62
2023-04-08T18:19:27.623Z,64.74
2023-04-08T18:21:53.762Z,64.78
2023-04-08T18:24:19.861Z,64.74
2023-04-08T18:26:49.095Z,64.59
2023-04-08T18:29:20.500Z,64.72
2023-04-08T18:31:46.591Z,64.66
2023-04-08T18:34:12.683Z,64.62
2023-04-08T18:36:39.209Z,64.57
2023-04-08T18:39:05.302Z,64.68
2023-04-08T18:41:31.385Z,64.63
2023-04-08T18:43:57.532Z,64.68
2023-04-08T18:46:23.660Z,64.66
2023-04-08T18:48:49.839Z,64.70
2023-04-08T18:51:15.972Z,64.64
2023-04-08T18:53:42.099Z,64.70
2023-04-08T18:56:08.191Z,64.82
2023-04-08T18:58:34.312Z,64.69
2023-04-08T19:01:00.410Z,64.79
2023-04-08T19:03:26.553Z,64.84
2023-04-08T19:05:52.742Z,64.74
2023-04-08T19:08:18.842Z,64.68
2023-04-08T19:10:44.934Z,64.87
2023-04-08T19:13:11.047Z,64.79
2023-04-08T19:15:37.214Z,64.77
2023-04-08T19:18:03.359Z,64.89
2023-04-08T19:20:29.508Z,64.74
2023-04-08T19:22:55.622Z,65.00
2023-04-08T19:25:21.715Z,64.91
2023-04-08T19:27:47.822Z,65.01
2023-04-08T19:30:13.928Z,64.91
2023-04-08T19:32:40.027Z,64.82
2023-04-08T19:35:06.171Z,64.73
2023-04-08T19:37:32.262Z,64.89
2023-04-08T19:39:58.352Z,64.95
2023-04-08T19:42:24.471Z,64.77
2023-04-08T19:44:50.601Z,64.88
2023-04-08T19:47:16.884Z,64.68
2023-04-08T19:49:42.990Z,64.71
2023-04-08T19:52:09.082Z,64.77
2023-04-08T19:54:35.168Z,64.97
2023-04-08T19:57:01.278Z,64.86
2023-04-08T19:59:27.388Z,64.81
2023-04-08T20:01:53.561Z,64.84
2023-04-08T20:04:20.008Z,64.90
2023-04-08T20:06:46.166Z,64.89
2023-04-08T20:09:12.274Z,64.85
2023-04-08T20:11:38.388Z,64.96
2023-04-08T20:14:04.482Z,64.83
2023-04-08T20:16:30.605Z,64.95
2023-04-08T20:18:56.759Z,64.86
2023-04-08T20:21:22.851Z,65.01
2023-04-08T20:23:48.987Z,64.89
2023-04-08T20:26:15.151Z,65.09
2023-04-08T20:28:41.228Z,64.88
2023-04-08T20:31:07.324Z,64.97
2023-04-08T20:33:33.459Z,64.89
2023-04-08T20:35:59.571Z,65.00
2023-04-08T20:38:25.695Z,65.04
2023-04-08T20:40:52.090Z,65.09
2023-04-08T20:43:18.198Z,64.86
2023-04-08T20:45:44.293Z,65.07
2023-04-08T20:48:10.433Z,64.92
2023-04-08T20:50:36.530Z,64.90
2023-04-08T20:53:02.617Z,65.05
2023-04-08T20:55:28.721Z,64.92
2023-04-08T20:57:54.814Z,64.95
2023-04-08T21:00:20.897Z,64.95
2023-04-08T21:02:47.163Z,65.10
2023-04-08T21:05:13.385Z,65.07
2023-04-08T21:07:39.485Z,64.97
2023-04-08T21:10:05.636Z,65.07
2023-04-08T21:12:31.936Z,65.11
2023-04-08T21:14:58.029Z,65.10
2023-04-08T21:17:24.169Z,64.95
2023-04-08T21:19:50.266Z,65.02
2023-04-08T21:22:16.360Z,65.21
2023-04-08T21:24:42.475Z,65.06
2023-04-08T21:27:08.567Z,65.11
2023-04-08T21:29:34.670Z,65.04
2023-04-08T21:32:00.886Z,65.15
2023-04-08T21:34:27.046Z,65.09
2023-04-08T21:36:53.146Z,65.13
2023-04-08T21:39:19.251Z,65.04
2023-04-08T21:41:45.374Z,65.12
2023-04-08T21:44:11.493Z,65.12
2023-04-08T21:46:38.251Z,64.97
2023-04-08T21:49:04.362Z,65.02
2023-04-08T21:51:30.481Z,65.01
2023-04-08T21:53:56.610Z,65.02
2023-04-08T21:56:22.734Z,65.02
2023-04-08T21:58:49.078Z,65.12
2023-04-08T22:01:15.356Z,65.17
2023-04-08T22:03:41.538Z,65.01
2023-04-08T22:06:07.662Z,64.99
2023-04-08T22:08:33.945Z,65.03
2023-04-08T22:11:00.064Z,65.15
2023-04-08T22:13:26.157Z,65.16
2023-04-08T22:15:52.282Z,64.96
2023-04-08T22:18:18.369Z,65.16
2023-04-08T22:20:44.463Z,65.29
2023-04-08T22:23:10.563Z,65.14
2023-04-08T22:25:36.658Z,65.12
2023-04-08T22:28:02.782Z,65.21
2023-04-08T22:30:28.898Z,65.07
2023-04-08T22:32:55.053Z,65.10
2023-04-08T22:35:21.160Z,65.15
2023-04-08T22:37:47.257Z,65.20
2023-04-08T22:40:13.355Z,65.12
2023-04-08T22:42:39.451Z,65.03
2023-04-08T22:45:05.570Z,65.17
2023-04-08T22:47:31.694Z,64.99
2023-04-08T22:49:57.803Z,65.17
2023-04-08T22:52:23.915Z,64.99
2023-04-08T22:54:50.015Z,65.01
2023-04-08T22:57:16.114Z,65.20
2023-04-08T22:59:42.204Z,65.20
2023-04-08T23:02:08.399Z,65.17
2023-04-08T23:04:36.052Z,65.25
2023-04-08T23:07:02.156Z,65.02
2023-04-08T23:09:28.255Z,65.03
2023-04-08T23:11:54.346Z,65.19
2023-04-08T23:14:20.930Z,65.17
2023-04-08T23:16:47.006Z,65.17
2023-04-08T23:19:13.112Z,65.24
2023-04-08T23:21:39.248Z,65.16
2023-04-08T23:24:05.345Z,65.08
2023-04-08T23:26:31.451Z,65.14
2023-04-08T23:28:57.565Z,65.04
2023-04-08T23:31:23.692Z,65.17
2023-04-08T23:33:49.844Z,65.14
2023-04-08T23:36:16.029Z,65.21
2023-04-08T23:38:42.152Z,65.15
2023-04-08T23:41:08.254Z,64.99
2023-04-08T23:43:34.380Z,65.22
2023-04-08T23:46:00.482Z,65.12
2023-04-08T23:48:26.582Z,65.18
2023-04-08T23:50:52.697Z,65.08
2023-04-08T23:53:18.833Z,65.20
2023-04-08T23:55:44.913Z,65.07
2023-04-08T23:58:11.043Z,65.03
